createdAt,value
2023-03-28T00:02:09.923Z,-1.29
2023-03-28T00:04:55.475Z,-1.37
2023-03-28T00:07:41.070Z,-1.53
2023-03-28T00:10:26.559Z,-1.44
2023-03-28T00:13:12.576Z,-1.33
2023-03-28T00:16:02.626Z,-1.31
2023-03-28T00:18:48.024Z,-1.51
2023-03-28T00:21:39.262Z,-1.34
2023-03-28T00:24:25.296Z,-1.78
2023-03-28T00:27:10.724Z,-1.78
2023-03-28T00:29:55.885Z,-1.17
2023-03-28T00:32:41.703Z,-1.28
2023-03-28T00:35:27.354Z,-1.23
2023-03-28T00:38:12.812Z,-1.29
2023-03-28T00:41:00.582Z,-1.33
2023-03-28T00:43:49.871Z,-1.37
2023-03-28T00:46:39.704Z,-1.40
2023-03-28T00:49:26.029Z,-1.56
2023-03-28T00:52:13.422Z,-1.42
2023-03-28T00:55:00.133Z,-1.27
2023-03-28T00:57:49.069Z,-1.27
2023-03-28T01:00:35.244Z,-1.65
2023-03-28T01:03:23.358Z,-1.36
2023-03-28T01:06:11.254Z,-1.83
2023-03-28T01:09:00.663Z,-1.64
2023-03-28T01:11:46.799Z,-1.77
2023-03-28T01:14:33.076Z,-1.46
2023-03-28T01:17:20.514Z,-1.30
2023-03-28T01:20:58.700Z,-1.34
2023-03-28T01:24:11.786Z,-1.29
2023-03-28T01:27:08.691Z,-1.22
2023-03-28T01:30:08.931Z,-1.33
2023-03-28T01:33:42.282Z,-1.60
2023-03-28T01:37:15.852Z,-1.31
2023-03-28T01:40:18.768Z,-1.14
2023-03-28T01:43:36.316Z,-1.19
2023-03-28T01:46:30.184Z,-1.34
2023-03-28T01:49:22.074Z,-1.43
2023-03-28T01:52:18.008Z,-1.38
2023-03-28T01:55:18.222Z,-1.27
2023-03-28T01:58:05.309Z,-1.14
2023-03-28T02:01:11.684Z,-1.18
2023-03-28T02:04:01.538Z,-1.21
2023-03-28T02:07:08.045Z,-1.06
2023-03-28T02:09:58.929Z,-1.00
2023-03-28T02:13:09.478Z,-1.09
2023-03-28T02:16:06.101Z,-1.46
2023-03-28T02:19:30.940Z,-1.07
2023-03-28T02:22:54.005Z,-1.26
2023-03-28T02:25:55.487Z,-1.31
2023-03-28T02:29:00.356Z,-1.24
2023-03-28T02:31:54.604Z,-1.17
2023-03-28T02:34:42.567Z,-1.26
2023-03-28T02:37:43.717Z,-1.34
2023-03-28T02:41:08.625Z,-1.25
2023-03-28T02:43:59.516Z,-1.24
2023-03-28T02:47:01.265Z,-1.19
2023-03-28T02:49:53.831Z,-1.13
2023-03-28T02:52:44.562Z,-0.95
2023-03-28T02:55:50.990Z,-1.03
2023-03-28T02:59:22.721Z,-1.08
2023-03-28T03:02:08.420Z,-0.87
2023-03-28T03:04:54.032Z,-0.85
2023-03-28T03:07:39.886Z,-1.02
2023-03-28T03:10:25.051Z,-0.81
2023-03-28T03:13:10.222Z,-0.95
2023-03-28T03:15:55.655Z,-0.90
2023-03-28T03:18:41.768Z,-0.91
2023-03-28T03:21:27.321Z,-0.89
2023-03-28T03:24:12.702Z,-0.82
2023-03-28T03:27:01.348Z,-0.89
2023-03-28T03:29:47.327Z,-0.91
2023-03-28T03:32:35.636Z,-0.78
2023-03-28T03:35:22.790Z,-0.88
2023-03-28T03:38:08.947Z,-0.93
2023-03-28T03:40:54.028Z,-0.97
2023-03-28T03:43:39.585Z,-0.95
2023-03-28T03:46:24.943Z,-1.05
2023-03-28T03:49:11.158Z,-0.94
2023-03-28T03:51:56.421Z,-0.87
2023-03-28T03:54:41.917Z,-1.12
2023-03-28T03:57:28.912Z,-0.94
2023-03-28T04:00:18.375Z,-0.91
2023-03-28T04:03:06.785Z,-1.21
2023-03-28T04:05:56.718Z,-0.91
2023-03-28T04:08:42.609Z,-0.96
2023-03-28T04:11:28.389Z,-1.15
2023-03-28T04:14:13.619Z,-1.38
2023-03-28T04:16:58.887Z,-0.87
2023-03-28T04:19:47.008Z,-0.86
2023-03-28T04:22:33.380Z,-0.85
2023-03-28T04:25:18.992Z,-1.02
2023-03-28T04:28:05.269Z,-0.92
2023-03-28T04:30:57.341Z,-0.87
2023-03-28T04:34:03.556Z,-0.86
2023-03-28T04:36:50.761Z,-0.77
2023-03-28T04:39:36.136Z,-0.67
2023-03-28T04:42:50.831Z,-0.78
2023-03-28T04:45:38.916Z,-0.63
2023-03-28T04:48:31.300Z,-0.58
2023-03-28T04:51:16.864Z,-0.67
2023-03-28T04:54:02.655Z,-0.74
2023-03-28T04:57:21.772Z,-1.17
2023-03-28T05:00:11.888Z,-1.45
2023-03-28T05:03:25.078Z,-1.22
2023-03-28T05:06:19.277Z,-1.26
2023-03-28T05:09:04.905Z,-0.85
2023-03-28T05:11:50.890Z,-0.92
2023-03-28T05:14:36.417Z,-0.92
2023-03-28T05:17:30.724Z,-1.21
2023-03-28T05:20:19.453Z,-1.44
2023-03-28T05:23:09.039Z,-1.03
2023-03-28T05:25:57.661Z,-1.30
2023-03-28T05:28:44.178Z,-0.99
2023-03-28T05:31:31.279Z,-1.13
2023-03-28T05:34:34.062Z,-1.06
2023-03-28T05:37:19.887Z,-1.10
2023-03-28T05:40:12.504Z,-1.31
2023-03-28T05:42:59.914Z,-1.29
2023-03-28T05:45:48.113Z,-1.57
2023-03-28T05:48:38.022Z,-1.34
2023-03-28T05:51:23.652Z,-1.11
2023-03-28T05:54:08.950Z,-1.15
2023-03-28T05:56:54.261Z,-1.09
2023-03-28T05:59:43.975Z,-1.16
2023-03-28T06:02:31.770Z,-1.00
2023-03-28T06:05:18.063Z,-0.74
2023-03-28T06:08:04.954Z,-0.71
2023-03-28T06:10:51.906Z,-0.69
2023-03-28T06:13:44.710Z,-0.83
2023-03-28T06:16:32.497Z,-0.80
2023-03-28T06:19:19.028Z,-0.68
2023-03-28T06:22:09.246Z,-0.64
2023-03-28T06:24:54.637Z,-0.75
2023-03-28T06:27:50.910Z,-0.66
2023-03-28T06:30:38.014Z,-0.73
2023-03-28T06:33:26.050Z,-0.73
2023-03-28T06:36:12.240Z,-0.73
2023-03-28T06:38:57.633Z,-1.04
2023-03-28T06:41:44.817Z,-1.04
2023-03-28T06:44:31.134Z,-0.85
2023-03-28T06:47:35.324Z,-0.71
2023-03-28T06:50:21.192Z,-0.83
2023-03-28T06:53:17.383Z,-0.71
2023-03-28T06:56:02.710Z,-0.52
2023-03-28T06:58:48.901Z,-0.68
2023-03-28T07:01:38.287Z,-0.60
2023-03-28T07:04:34.125Z,-0.87
2023-03-28T07:07:19.598Z,-0.65
2023-03-28T07:10:07.303Z,-0.92
2023-03-28T07:12:52.806Z,-0.71
2023-03-28T07:15:38.265Z,-0.38
2023-03-28T07:18:23.668Z,-0.38
2023-03-28T07:21:14.320Z,-0.29
2023-03-28T07:23:59.791Z,-0.31
2023-03-28T07:26:54.809Z,-0.23
2023-03-28T07:29:46.698Z,-0.34
2023-03-28T07:32:42.642Z,-0.26
2023-03-28T07:35:39.222Z,-0.35
2023-03-28T07:38:24.591Z,-0.41
2023-03-28T07:41:13.526Z,-0.10
2023-03-28T07:44:00.229Z,0.14
2023-03-28T07:46:45.328Z,0.24
2023-03-28T07:49:30.589Z,0.41
2023-03-28T07:52:15.967Z,0.47
2023-03-28T07:55:01.425Z,0.30
2023-03-28T07:57:49.408Z,0.59
2023-03-28T08:01:06.319Z,0.89
2023-03-28T08:03:54.623Z,1.20
2023-03-28T08:06:43.230Z,1.39
2023-03-28T08:09:28.589Z,1.47
2023-03-28T08:12:36.638Z,1.27
2023-03-28T08:15:22.031Z,0.90
2023-03-28T08:18:07.545Z,0.83
2023-03-28T08:21:00.510Z,0.67
2023-03-28T08:23:48.702Z,1.28
2023-03-28T08:29:29.593Z,1.29
2023-03-28T08:32:15.079Z,1.53
2023-03-28T08:35:00.504Z,1.47
2023-03-28T08:37:46.263Z,1.73
2023-03-28T08:40:32.146Z,1.76
2023-03-28T08:43:36.871Z,2.00
2023-03-28T08:46:27.060Z,2.16
2023-03-28T08:49:18.238Z,2.17
2023-03-28T08:52:04.440Z,2.23
2023-03-28T08:55:35.531Z,2.25
2023-03-28T08:58:21.547Z,1.66
2023-03-28T09:01:09.383Z,2.20
2023-03-28T09:03:55.094Z,2.00
2023-03-28T09:06:49.298Z,1.63
2023-03-28T09:09:45.926Z,2.02
2023-03-28T09:13:00.058Z,2.00
2023-03-28T09:15:47.966Z,1.95
2023-03-28T09:18:55.958Z,2.27
2023-03-28T09:22:16.814Z,2.37
2023-03-28T09:25:17.778Z,2.45
2023-03-28T09:28:26.548Z,2.50
2023-03-28T09:31:15.692Z,2.55
2023-03-28T09:34:02.477Z,2.65
2023-03-28T09:37:02.563Z,2.85
2023-03-28T09:39:50.642Z,2.71
2023-03-28T09:42:49.428Z,2.87
2023-03-28T09:45:56.960Z,3.44
2023-03-28T09:49:01.362Z,3.80
2023-03-28T09:51:53.917Z,3.61
2023-03-28T09:54:41.143Z,3.65
2023-03-28T09:57:26.766Z,3.56
2023-03-28T10:00:21.594Z,3.62
2023-03-28T10:03:29.192Z,3.53
2023-03-28T10:06:24.783Z,3.41
2023-03-28T10:09:25.271Z,3.33
2023-03-28T10:12:31.068Z,3.16
2023-03-28T10:15:39.688Z,3.31
2023-03-28T10:19:03.751Z,2.95
2023-03-28T10:22:14.458Z,3.48
2023-03-28T10:25:08.019Z,3.43
2023-03-28T10:27:53.688Z,3.65
2023-03-28T10:30:40.484Z,4.01
2023-03-28T10:33:31.806Z,4.17
2023-03-28T10:36:40.415Z,4.53
2023-03-28T10:39:31.494Z,4.54
2023-03-28T10:42:46.439Z,3.98
2023-03-28T10:45:54.760Z,4.54
2023-03-28T10:49:01.285Z,4.43
2023-03-28T10:51:47.031Z,4.64
2023-03-28T10:54:41.570Z,4.81
2023-03-28T10:57:44.513Z,4.61
2023-03-28T11:00:57.994Z,4.79
2023-03-28T11:03:55.418Z,4.54
2023-03-28T11:07:10.939Z,4.61
2023-03-28T11:10:35.753Z,4.63
2023-03-28T11:14:02.865Z,4.83
2023-03-28T11:17:04.176Z,5.04
2023-03-28T11:20:06.000Z,5.38
2023-03-28T11:23:30.883Z,5.68
2023-03-28T11:26:41.684Z,5.62
2023-03-28T11:30:14.812Z,5.93
2023-03-28T11:33:30.663Z,6.07
2023-03-28T11:36:38.777Z,6.24
2023-03-28T11:39:52.990Z,6.05
2023-03-28T11:43:00.188Z,5.98
2023-03-28T11:45:52.184Z,5.83
2023-03-28T11:48:56.139Z,6.06
2023-03-28T11:52:01.073Z,6.15
2023-03-28T11:55:01.438Z,6.34
2023-03-28T11:58:00.064Z,6.27
2023-03-28T12:01:08.907Z,6.34
2023-03-28T12:04:17.261Z,6.14
2023-03-28T12:07:16.166Z,6.36
2023-03-28T12:10:29.388Z,6.15
2023-03-28T12:14:11.964Z,6.09
2023-03-28T12:17:15.758Z,5.99
2023-03-28T12:20:01.701Z,5.69
2023-03-28T12:22:54.220Z,6.10
2023-03-28T12:26:25.838Z,6.17
2023-03-28T12:29:28.090Z,6.15
2023-03-28T12:32:29.430Z,6.41
2023-03-28T12:35:29.738Z,6.85
2023-03-28T12:38:27.330Z,7.01
2023-03-28T12:41:29.461Z,7.06
2023-03-28T12:44:25.952Z,6.83
2023-03-28T12:47:21.273Z,6.41
2023-03-28T12:50:15.576Z,6.57
2023-03-28T12:53:01.602Z,6.54
2023-03-28T12:55:53.869Z,6.60
2023-03-28T12:58:42.107Z,6.72
2023-03-28T13:01:54.058Z,6.41
2023-03-28T13:05:04.157Z,6.48
2023-03-28T13:08:09.508Z,5.96
2023-03-28T13:11:05.459Z,6.77
2023-03-28T13:14:16.096Z,6.50
2023-03-28T13:17:25.106Z,6.64
2023-03-28T13:20:16.145Z,6.59
2023-03-28T13:23:08.114Z,6.59
2023-03-28T13:26:02.561Z,6.50
2023-03-28T13:28:49.380Z,6.06
2023-03-28T13:31:34.706Z,6.24
2023-03-28T13:34:23.644Z,6.15
2023-03-28T13:37:24.542Z,6.45
2023-03-28T13:40:40.335Z,6.44
2023-03-28T13:43:28.357Z,6.73
2023-03-28T13:46:16.559Z,6.76
2023-03-28T13:49:10.910Z,6.84
2023-03-28T13:52:02.193Z,6.95
2023-03-28T13:54:47.659Z,6.68
2023-03-28T13:57:33.339Z,6.46
2023-03-28T14:00:23.586Z,6.35
2023-03-28T14:03:15.279Z,6.67
2023-03-28T14:06:12.054Z,6.90
2023-03-28T14:09:02.353Z,6.73
2023-03-28T14:11:49.856Z,6.50
2023-03-28T14:14:42.621Z,6.57
2023-03-28T14:17:34.055Z,6.41
2023-03-28T14:20:19.516Z,6.58
2023-03-28T14:23:05.348Z,6.65
2023-03-28T14:25:57.320Z,6.37
2023-03-28T14:28:45.456Z,6.56
2023-03-28T14:31:32.143Z,6.80
2023-03-28T14:34:20.565Z,6.99
2023-03-28T14:37:14.758Z,6.77
2023-03-28T14:39:59.714Z,6.93
2023-03-28T14:42:44.983Z,6.75
2023-03-28T14:45:34.596Z,6.41
2023-03-28T14:48:24.234Z,6.14
2023-03-28T14:51:13.318Z,6.60
2023-03-28T14:53:58.475Z,6.31
2023-03-28T14:56:44.958Z,6.71
2023-03-28T14:59:38.626Z,6.92
2023-03-28T15:02:32.607Z,6.51
2023-03-28T15:05:20.794Z,6.40
2023-03-28T15:08:17.870Z,6.25
2023-03-28T15:11:13.339Z,6.25
2023-03-28T15:14:15.424Z,6.17
2023-03-28T15:17:01.521Z,6.32
2023-03-28T15:19:51.695Z,6.22
2023-03-28T15:22:37.304Z,6.24
2023-03-28T15:25:23.876Z,6.37
2023-03-28T15:28:09.637Z,6.02
2023-03-28T15:30:58.887Z,5.87
2023-03-28T15:33:47.080Z,5.73
2023-03-28T15:36:33.270Z,5.26
2023-03-28T15:39:39.024Z,5.11
2023-03-28T15:42:32.211Z,3.46
2023-03-28T15:45:20.641Z,5.08
2023-03-28T15:48:12.160Z,4.95
2023-03-28T15:50:57.651Z,4.90
2023-03-28T15:53:46.489Z,4.87
2023-03-28T15:56:33.187Z,4.53
2023-03-28T15:59:40.196Z,4.95
2023-03-28T16:02:25.559Z,5.17
2023-03-28T16:05:14.057Z,5.28
2023-03-28T16:07:59.515Z,5.29
2023-03-28T16:10:44.703Z,5.07
2023-03-28T16:13:50.348Z,5.16
2023-03-28T16:17:09.988Z,4.91
2023-03-28T16:20:13.803Z,4.91
2023-03-28T16:22:59.147Z,5.04
2023-03-28T16:25:44.588Z,5.23
2023-03-28T16:28:29.927Z,5.03
2023-03-28T16:31:15.709Z,4.64
2023-03-28T16:34:01.150Z,4.64
2023-03-28T16:36:46.487Z,4.74
2023-03-28T16:39:31.477Z,4.85
2023-03-28T16:42:16.582Z,4.57
2023-03-28T16:45:02.232Z,4.97
2023-03-28T16:47:47.605Z,4.82
2023-03-28T16:50:33.157Z,4.83
2023-03-28T16:53:18.207Z,4.89
2023-03-28T16:56:05.927Z,4.88
2023-03-28T16:58:51.145Z,5.10
2023-03-28T17:01:36.911Z,4.92
2023-03-28T17:04:22.354Z,4.69
2023-03-28T17:07:07.762Z,4.78
2023-03-28T17:09:53.274Z,4.50
2023-03-28T17:12:38.960Z,4.27
2023-03-28T17:15:24.315Z,3.54
2023-03-28T17:18:09.599Z,3.75
2023-03-28T17:21:03.863Z,3.85
2023-03-28T17:23:50.030Z,3.90
2023-03-28T17:26:35.203Z,3.81
2023-03-28T17:29:27.665Z,3.98
2023-03-28T17:32:13.320Z,3.84
2023-03-28T17:34:58.891Z,4.00
2023-03-28T17:37:44.283Z,3.85
2023-03-28T17:40:29.421Z,3.75
2023-03-28T17:43:15.239Z,3.59
2023-03-28T17:46:01.058Z,3.39
2023-03-28T17:48:47.280Z,3.36
2023-03-28T17:51:35.139Z,3.39
2023-03-28T17:54:24.340Z,3.53
2023-03-28T17:57:11.119Z,3.54
2023-03-28T17:59:56.949Z,3.73
2023-03-28T18:02:42.849Z,3.80
2023-03-28T18:05:37.274Z,3.85
2023-03-28T18:08:22.597Z,3.93
2023-03-28T18:11:10.260Z,3.59
2023-03-28T18:13:55.673Z,3.31
2023-03-28T18:16:43.004Z,3.59
2023-03-28T18:19:28.184Z,3.57
2023-03-28T18:22:15.167Z,3.50
2023-03-28T18:25:01.257Z,3.10
2023-03-28T18:27:47.105Z,3.31
2023-03-28T18:30:32.624Z,3.53
2023-03-28T18:33:19.346Z,3.79
2023-03-28T18:36:05.221Z,3.87
2023-03-28T18:38:54.022Z,3.89
2023-03-28T18:41:39.477Z,3.87
2023-03-28T18:44:24.869Z,3.55
2023-03-28T18:47:10.084Z,3.84
2023-03-28T18:49:55.370Z,3.79
2023-03-28T18:52:53.276Z,3.84
2023-03-28T18:55:41.920Z,3.88
2023-03-28T18:58:29.592Z,3.90
2023-03-28T19:01:15.075Z,3.94
2023-03-28T19:04:00.215Z,3.95
2023-03-28T19:06:46.099Z,3.91
2023-03-28T19:09:31.835Z,3.58
2023-03-28T19:12:17.352Z,3.76
2023-03-28T19:15:04.262Z,3.72
2023-03-28T19:17:49.988Z,3.65
2023-03-28T19:20:35.399Z,3.61
2023-03-28T19:23:21.758Z,3.56
2023-03-28T19:26:09.718Z,3.62
2023-03-28T19:28:55.252Z,3.63
2023-03-28T19:31:40.525Z,3.59
2023-03-28T19:34:26.166Z,3.53
2023-03-28T19:37:11.783Z,3.41
2023-03-28T19:39:56.970Z,3.39
2023-03-28T19:42:42.163Z,3.28
2023-03-28T19:45:28.917Z,3.09
2023-03-28T19:48:14.209Z,3.18
2023-03-28T19:51:00.896Z,3.18
2023-03-28T19:53:46.322Z,3.18
2023-03-28T19:56:31.868Z,3.15
2023-03-28T19:59:17.171Z,3.05
2023-03-28T20:02:02.484Z,2.91
2023-03-28T20:04:48.004Z,2.88
2023-03-28T20:07:33.131Z,2.89
2023-03-28T20:10:18.607Z,2.50
2023-03-28T20:13:04.273Z,2.92
2023-03-28T20:15:49.533Z,2.74
2023-03-28T20:18:36.196Z,2.57
2023-03-28T20:21:21.474Z,2.69
2023-03-28T20:24:07.171Z,2.69
2023-03-28T20:26:52.948Z,2.55
2023-03-28T20:29:38.215Z,2.51
2023-03-28T20:32:23.409Z,2.49
2023-03-28T20:35:09.081Z,2.31
2023-03-28T20:37:54.648Z,2.33
2023-03-28T20:40:40.202Z,2.47
2023-03-28T20:43:25.322Z,2.53
2023-03-28T20:46:10.842Z,2.58
2023-03-28T20:48:56.238Z,2.60
2023-03-28T20:51:41.415Z,2.50
2023-03-28T20:54:26.578Z,2.45
2023-03-28T20:57:12.036Z,2.50
2023-03-28T20:59:57.393Z,2.55
2023-03-28T21:02:42.609Z,2.50
2023-03-28T21:05:28.279Z,2.55
2023-03-28T21:08:15.531Z,2.61
2023-03-28T21:11:01.204Z,2.55
2023-03-28T21:13:46.857Z,2.56
2023-03-28T21:16:33.696Z,2.25
2023-03-28T21:19:19.061Z,2.05
2023-03-28T21:22:04.416Z,1.97
2023-03-28T21:24:49.569Z,1.88
2023-03-28T21:27:34.877Z,1.78
2023-03-28T21:30:19.992Z,2.00
2023-03-28T21:33:05.526Z,2.16
2023-03-28T21:35:51.839Z,2.02
2023-03-28T21:38:37.922Z,2.11
2023-03-28T21:41:23.692Z,1.91
2023-03-28T21:44:08.891Z,1.87
2023-03-28T21:46:54.557Z,1.94
2023-03-28T21:49:39.773Z,1.97
2023-03-28T21:52:24.859Z,2.01
2023-03-28T21:55:10.130Z,2.04
2023-03-28T21:57:55.328Z,2.26
2023-03-28T22:00:40.421Z,2.04
2023-03-28T22:03:25.791Z,2.06
2023-03-28T22:06:12.095Z,1.68
2023-03-28T22:08:57.473Z,2.20
2023-03-28T22:11:43.512Z,2.10
2023-03-28T22:14:29.270Z,1.78
2023-03-28T22:17:14.709Z,2.02
2023-03-28T22:20:00.168Z,1.97
2023-03-28T22:22:45.567Z,2.08
2023-03-28T22:25:31.665Z,1.94
2023-03-28T22:28:17.172Z,2.13
2023-03-28T22:31:02.871Z,1.85
2023-03-28T22:33:48.791Z,2.46
2023-03-28T22:36:34.040Z,2.36
2023-03-28T22:39:19.440Z,2.51
2023-03-28T22:42:05.054Z,2.47
2023-03-28T22:44:50.397Z,2.39
2023-03-28T22:47:36.063Z,2.75
2023-03-28T22:50:21.183Z,2.79
2023-03-28T22:53:06.765Z,2.64
2023-03-28T22:55:52.116Z,2.73
2023-03-28T22:58:37.567Z,2.81
2023-03-28T23:01:22.863Z,2.93
2023-03-28T23:04:08.657Z,2.80
2023-03-28T23:06:54.196Z,2.77
2023-03-28T23:09:40.360Z,2.61
2023-03-28T23:12:25.463Z,2.15
2023-03-28T23:15:11.698Z,2.44
2023-03-28T23:17:56.925Z,2.31
2023-03-28T23:20:42.408Z,2.14
2023-03-28T23:23:27.661Z,2.22
2023-03-28T23:26:16.444Z,2.10
2023-03-28T23:29:01.866Z,2.53
2023-03-28T23:31:47.297Z,2.71
2023-03-28T23:34:32.610Z,2.12
2023-03-28T23:37:17.988Z,2.69
2023-03-28T23:40:03.173Z,2.72
2023-03-28T23:42:48.893Z,2.33
2023-03-28T23:45:34.310Z,2.46
2023-03-28T23:48:19.571Z,2.56
2023-03-28T23:51:05.196Z,2.02
2023-03-28T23:53:50.801Z,1.80
2023-03-28T23:56:36.309Z,1.94
2023-03-28T23:59:21.910Z,1.44
